createdAt,value
2019-05-15T00:01:05.543Z,90.00
2019-05-15T00:03:33.817Z,90.11
2019-05-15T00:12:15.476Z,93.53
2019-05-15T00:14:43.756Z,93.46
2019-05-15T00:17:12.015Z,93.29
2019-05-15T00:19:40.320Z,92.75
2019-05-15T00:22:08.723Z,92.29
2019-05-15T00:24:38.594Z,91.97
2019-05-15T00:27:08.196Z,92.01
2019-05-15T00:29:38.335Z,92.43
2019-05-15T00:38:29.804Z,93.35
2019-05-15T00:40:58.580Z,94.22
2019-05-15T00:53:02.746Z,96.08
2019-05-15T00:58:40.158Z,97.12
2019-05-15T01:01:28.832Z,97.70
2019-05-15T01:03:58.656Z,97.56
2019-05-15T01:09:48.699Z,96.83
2019-05-15T01:12:18.441Z,96.75
2019-05-15T01:14:48.939Z,96.89
2019-05-15T01:17:18.483Z,97.08
2019-05-15T01:19:50.172Z,97.23
2019-05-15T01:22:19.478Z,96.75
2019-05-15T01:24:48.672Z,96.60
2019-05-15T01:27:18.423Z,96.58
2019-05-15T01:29:49.112Z,96.24
2019-05-15T01:35:45.354Z,96.82
2019-05-15T01:38:13.623Z,96.73
2019-05-15T01:40:41.900Z,96.66
2019-05-15T01:43:10.171Z,96.27
2019-05-15T01:45:39.421Z,96.38
2019-05-15T01:51:11.850Z,96.66
2019-05-15T01:56:51.776Z,98.97
2019-05-15T01:59:20.068Z,99.96
2019-05-15T02:05:18.791Z,100.00
2019-05-15T02:08:28.775Z,100.00
2019-05-15T02:10:58.814Z,99.47
2019-05-15T02:13:28.222Z,99.45
2019-05-15T02:15:58.888Z,98.97
2019-05-15T02:18:28.563Z,98.99
2019-05-15T02:20:58.691Z,99.25
2019-05-15T02:23:28.036Z,99.84
2019-05-15T02:25:58.892Z,100.00
2019-05-15T02:28:28.900Z,100.00
2019-05-15T02:30:58.758Z,100.00
2019-05-15T02:33:30.136Z,100.00
2019-05-15T02:42:29.931Z,100.00
2019-05-15T02:44:58.710Z,100.00
2019-05-15T02:47:29.098Z,100.00
2019-05-15T02:49:59.287Z,100.00
2019-05-15T02:52:29.501Z,100.00
2019-05-15T02:54:59.965Z,100.00
2019-05-15T03:04:01.482Z,100.00
2019-05-15T03:06:31.828Z,100.00
2019-05-15T03:09:00.154Z,100.00
2019-05-15T03:11:29.488Z,100.00
2019-05-15T03:13:59.250Z,100.00
2019-05-15T03:17:00.700Z,100.00
2019-05-15T03:19:30.119Z,100.00
2019-05-15T03:21:59.836Z,100.00
2019-05-15T03:24:50.340Z,100.00
2019-05-15T03:27:39.158Z,100.00
2019-05-15T03:30:22.025Z,100.00
2019-05-15T03:33:00.545Z,100.00
2019-05-15T03:35:22.622Z,100.00
2019-05-15T03:38:02.653Z,100.00
2019-05-15T03:40:31.026Z,100.00
2019-05-15T03:42:59.617Z,100.00
2019-05-15T03:45:29.714Z,100.00
2019-05-15T03:47:59.530Z,100.00
2019-05-15T03:50:29.122Z,100.00
2019-05-15T03:52:58.791Z,100.00
2019-05-15T03:55:29.663Z,100.00
2019-05-15T03:57:59.224Z,100.00
2019-05-15T04:00:30.117Z,100.00
2019-05-15T04:02:59.218Z,100.00
2019-05-15T04:06:01.778Z,100.00
2019-05-15T04:08:30.335Z,100.00
2019-05-15T04:11:00.234Z,100.00
2019-05-15T04:14:10.205Z,100.00
2019-05-15T04:16:39.257Z,100.00
2019-05-15T04:19:09.629Z,100.00
2019-05-15T04:21:43.941Z,100.00
2019-05-15T04:24:09.536Z,100.00
2019-05-15T04:26:39.390Z,100.00
2019-05-15T04:29:09.792Z,100.00
2019-05-15T04:31:54.486Z,100.00
2019-05-15T04:34:09.282Z,100.00
2019-05-15T04:36:41.748Z,100.00
2019-05-15T04:42:04.980Z,100.00
2019-05-15T04:44:33.259Z,100.00
2019-05-15T04:47:01.535Z,100.00
2019-05-15T04:49:29.791Z,100.00
2019-05-15T04:52:03.145Z,100.00
2019-05-15T04:54:28.927Z,100.00
2019-05-15T04:56:59.427Z,100.00
2019-05-15T05:02:35.680Z,100.00
2019-05-15T05:08:01.573Z,100.00
2019-05-15T05:10:29.835Z,100.00
2019-05-15T05:12:59.142Z,100.00
2019-05-15T05:15:29.259Z,100.00
2019-05-15T05:17:58.605Z,100.00
2019-05-15T05:20:28.817Z,100.00
2019-05-15T05:22:58.447Z,100.00
2019-05-15T05:25:28.163Z,100.00
2019-05-15T05:27:58.054Z,100.00
2019-05-15T05:30:26.432Z,100.00
2019-05-15T05:32:54.709Z,100.00
2019-05-15T05:38:28.404Z,99.25
2019-05-15T05:40:58.719Z,98.08
2019-05-15T05:46:15.612Z,94.58
2019-05-15T05:51:41.478Z,93.14
2019-05-15T05:54:09.749Z,92.66
2019-05-15T05:56:38.072Z,92.54
2019-05-15T05:59:06.304Z,89.98
2019-05-15T06:01:38.200Z,90.83
2019-05-15T06:04:04.639Z,91.55
2019-05-15T06:12:45.062Z,86.79
2019-05-15T06:15:13.370Z,83.56
2019-05-15T06:17:41.646Z,83.16
2019-05-15T06:20:09.994Z,80.78
2019-05-15T06:22:38.904Z,79.01
2019-05-15T06:25:11.255Z,75.96
2019-05-15T06:27:39.093Z,74.11
2019-05-15T06:33:15.800Z,71.69
2019-05-15T06:35:44.812Z,69.67
2019-05-15T06:38:13.079Z,68.98
2019-05-15T06:43:39.198Z,66.77
2019-05-15T06:46:09.121Z,68.54
2019-05-15T06:48:37.980Z,68.94
2019-05-15T06:51:08.805Z,68.92
2019-05-15T06:56:50.048Z,68.96
2019-05-15T06:59:18.332Z,71.33
2019-05-15T07:01:48.127Z,69.28
2019-05-15T07:04:18.206Z,65.53
2019-05-15T07:06:48.702Z,64.60
2019-05-15T07:09:17.930Z,64.59
2019-05-15T07:11:48.315Z,67.17
2019-05-15T07:14:18.074Z,64.75
2019-05-15T07:16:48.825Z,64.37
2019-05-15T07:19:18.993Z,63.61
2019-05-15T07:21:48.670Z,64.04
2019-05-15T07:24:18.231Z,61.25
2019-05-15T07:26:48.410Z,61.70
2019-05-15T07:29:18.878Z,60.72
2019-05-15T07:31:47.821Z,58.28
2019-05-15T07:40:31.131Z,54.28
2019-05-15T07:49:38.819Z,57.96
2019-05-15T07:54:57.970Z,58.23
2019-05-15T07:57:25.765Z,55.88
2019-05-15T08:02:49.596Z,54.50
2019-05-15T08:08:25.366Z,55.64
2019-05-15T08:10:53.650Z,52.95
2019-05-15T08:13:21.983Z,54.18
2019-05-15T08:15:50.258Z,52.84
2019-05-15T08:21:39.195Z,54.65
2019-05-15T08:24:08.545Z,53.02
2019-05-15T08:29:44.952Z,52.07
2019-05-15T08:32:13.288Z,50.91
2019-05-15T08:38:20.251Z,52.16
2019-05-15T08:41:21.436Z,53.16
2019-05-15T08:47:00.263Z,51.21
2019-05-15T08:49:28.528Z,51.28
2019-05-15T08:51:58.441Z,52.28
2019-05-15T08:54:29.008Z,51.83
2019-05-15T08:56:59.189Z,49.16
2019-05-15T08:59:29.266Z,51.03
2019-05-15T09:10:39.915Z,50.80
2019-05-15T09:13:09.577Z,49.12
2019-05-15T09:19:00.911Z,48.53
2019-05-15T09:24:38.008Z,51.26
2019-05-15T09:29:59.342Z,53.24
2019-05-15T09:35:49.152Z,50.73
2019-05-15T09:38:18.506Z,51.51
2019-05-15T09:44:10.045Z,52.50
2019-05-15T09:49:33.873Z,50.50
2019-05-15T09:52:02.142Z,52.22
2019-05-15T09:57:19.441Z,50.27
2019-05-15T10:06:15.383Z,50.59
2019-05-15T10:08:45.484Z,50.61
2019-05-15T10:11:13.761Z,49.68
2019-05-15T10:13:48.474Z,49.46
2019-05-15T10:16:19.874Z,49.85
2019-05-15T10:18:50.794Z,48.81
2019-05-15T10:21:20.319Z,49.92
2019-05-15T10:23:51.251Z,49.67
2019-05-15T10:26:21.987Z,49.69
2019-05-15T10:28:51.331Z,49.19
2019-05-15T10:31:20.436Z,47.92
2019-05-15T10:33:49.414Z,49.05
2019-05-15T10:36:19.365Z,49.81
2019-05-15T10:38:49.705Z,49.26
2019-05-15T10:41:18.837Z,50.92
2019-05-15T10:43:56.137Z,52.52
2019-05-15T10:46:20.393Z,50.77
2019-05-15T10:48:49.467Z,49.66
2019-05-15T10:51:19.723Z,50.24
2019-05-15T10:53:50.573Z,48.54
2019-05-15T10:56:19.401Z,49.40
2019-05-15T10:58:50.516Z,49.13
2019-05-15T11:01:19.384Z,49.10
2019-05-15T11:03:49.604Z,50.51
2019-05-15T11:06:18.318Z,49.58
2019-05-15T11:08:51.222Z,50.17
2019-05-15T11:11:19.579Z,51.59
2019-05-15T11:13:49.469Z,50.31
2019-05-15T11:16:21.343Z,48.76
2019-05-15T11:18:49.596Z,47.25
2019-05-15T11:21:19.027Z,48.59
2019-05-15T11:23:49.416Z,48.69
2019-05-15T11:26:19.514Z,48.21
2019-05-15T11:28:49.673Z,49.06
2019-05-15T11:31:19.177Z,49.24
2019-05-15T11:33:50.392Z,47.82
2019-05-15T11:36:21.782Z,46.96
2019-05-15T11:38:50.061Z,46.15
2019-05-15T11:41:19.175Z,48.02
2019-05-15T11:43:49.511Z,43.88
2019-05-15T11:46:25.537Z,44.81
2019-05-15T11:48:53.375Z,45.72
2019-05-15T11:51:21.643Z,48.00
2019-05-15T11:53:50.658Z,47.37
2019-05-15T11:56:19.198Z,45.07
2019-05-15T11:58:48.954Z,42.41
2019-05-15T12:01:19.634Z,44.22
2019-05-15T12:03:48.227Z,44.28
2019-05-15T12:06:21.992Z,45.88
2019-05-15T12:08:46.504Z,44.63
2019-05-15T12:11:31.108Z,43.19
2019-05-15T12:13:46.908Z,43.15
2019-05-15T12:16:19.310Z,45.10
2019-05-15T12:18:49.024Z,43.94
2019-05-15T12:21:20.308Z,42.46
2019-05-15T12:23:49.995Z,44.74
2019-05-15T12:26:20.685Z,43.94
2019-05-15T12:28:49.142Z,44.45
2019-05-15T12:31:17.341Z,43.12
2019-05-15T12:33:48.938Z,44.48
2019-05-15T12:36:45.490Z,45.08
2019-05-15T12:38:50.278Z,45.73
2019-05-15T13:01:34.044Z,46.12
2019-05-15T13:04:02.339Z,44.91
2019-05-15T13:06:31.100Z,45.72
2019-05-15T13:09:00.064Z,44.36
2019-05-15T13:11:29.845Z,45.39
2019-05-15T13:13:59.094Z,45.76
2019-05-15T13:16:28.163Z,45.50
2019-05-15T13:18:58.646Z,45.66
2019-05-15T13:21:26.532Z,48.37
2019-05-15T13:23:55.052Z,45.45
2019-05-15T13:26:27.063Z,45.89
2019-05-15T13:28:54.908Z,43.68
2019-05-15T13:31:25.464Z,46.22
2019-05-15T13:33:55.550Z,44.40
2019-05-15T13:36:24.633Z,45.95
2019-05-15T13:38:54.275Z,45.30
2019-05-15T13:41:22.812Z,45.17
2019-05-15T13:43:51.506Z,44.63
2019-05-15T13:46:20.851Z,44.22
2019-05-15T13:48:49.284Z,44.78
2019-05-15T13:51:29.019Z,45.42
2019-05-15T13:53:57.514Z,46.42
2019-05-15T13:56:28.956Z,45.33
2019-05-15T13:58:58.848Z,46.59
2019-05-15T14:01:28.653Z,46.41
2019-05-15T14:03:58.853Z,46.81
2019-05-15T14:06:28.721Z,45.06
2019-05-15T14:08:58.124Z,44.71
2019-05-15T14:11:30.973Z,46.66
2019-05-15T14:13:59.693Z,46.75
2019-05-15T14:16:28.369Z,47.53
2019-05-15T14:18:58.749Z,47.95
2019-05-15T14:21:29.336Z,48.41
2019-05-15T14:24:01.298Z,49.64
2019-05-15T14:26:28.204Z,50.47
2019-05-15T14:28:58.713Z,50.14
2019-05-15T14:31:28.501Z,50.42
2019-05-15T14:34:02.615Z,48.35
2019-05-15T14:36:30.907Z,48.44
2019-05-15T14:38:59.225Z,48.84
2019-05-15T14:41:29.243Z,48.36
2019-05-15T14:44:13.055Z,48.34
2019-05-15T14:46:29.270Z,50.41
2019-05-15T14:49:00.518Z,49.63
2019-05-15T14:51:28.825Z,48.69
2019-05-15T14:53:58.560Z,48.70
2019-05-15T14:56:27.959Z,49.51
2019-05-15T14:58:58.444Z,50.10
2019-05-15T15:01:26.261Z,47.00
2019-05-15T15:03:57.993Z,46.22
2019-05-15T15:06:28.761Z,46.77
2019-05-15T15:08:59.325Z,44.90
2019-05-15T15:11:28.499Z,45.48
2019-05-15T15:13:57.971Z,45.80
2019-05-15T15:16:29.013Z,45.67
2019-05-15T15:18:58.501Z,45.46
2019-05-15T15:21:29.252Z,45.92
2019-05-15T15:23:59.325Z,46.00
2019-05-15T15:26:28.408Z,47.10
2019-05-15T15:28:58.862Z,44.69
2019-05-15T15:31:29.970Z,44.83
2019-05-15T15:33:58.304Z,45.43
2019-05-15T15:36:29.857Z,44.97
2019-05-15T15:38:58.820Z,44.71
2019-05-15T15:41:29.471Z,44.66
2019-05-15T15:43:58.813Z,44.95
2019-05-15T15:46:28.666Z,43.84
2019-05-15T15:48:59.299Z,44.38
2019-05-15T15:51:28.594Z,45.24
2019-05-15T15:53:59.389Z,44.64
2019-05-15T15:56:29.110Z,44.64
2019-05-15T15:58:59.434Z,43.79
2019-05-15T16:01:31.033Z,43.09
2019-05-15T16:04:00.468Z,43.00
2019-05-15T16:06:29.515Z,43.74
2019-05-15T16:08:59.546Z,45.16
2019-05-15T16:11:28.411Z,44.49
2019-05-15T16:13:58.693Z,43.52
2019-05-15T16:16:28.469Z,44.48
2019-05-15T16:18:56.838Z,44.43
2019-05-15T16:21:25.156Z,44.38
2019-05-15T16:23:53.448Z,44.68
2019-05-15T16:26:21.785Z,43.22
2019-05-15T16:28:50.056Z,45.13
2019-05-15T16:31:18.716Z,43.89
2019-05-15T16:33:49.338Z,43.47
2019-05-15T16:36:19.403Z,44.42
2019-05-15T16:38:48.313Z,44.33
2019-05-15T16:41:20.353Z,44.00
2019-05-15T16:43:48.713Z,44.13
2019-05-15T16:46:19.136Z,44.42
2019-05-15T16:48:49.419Z,44.58
2019-05-15T16:51:18.141Z,44.76
2019-05-15T16:53:48.780Z,43.21
2019-05-15T16:56:19.104Z,44.33
2019-05-15T16:58:49.475Z,44.10
2019-05-15T17:01:19.932Z,43.59
2019-05-15T17:03:49.407Z,44.08
2019-05-15T17:06:18.688Z,43.80
2019-05-15T17:08:49.987Z,45.18
2019-05-15T17:11:22.367Z,44.72
2019-05-15T17:13:51.325Z,46.19
2019-05-15T17:16:19.599Z,46.79
2019-05-15T17:18:48.605Z,46.75
2019-05-15T17:21:21.622Z,46.29
2019-05-15T17:23:52.793Z,46.27
2019-05-15T17:26:21.106Z,46.91
2019-05-15T17:28:49.579Z,46.50
2019-05-15T17:31:18.231Z,48.38
2019-05-15T17:33:48.979Z,45.58
2019-05-15T17:36:18.589Z,46.08
2019-05-15T17:38:48.866Z,46.49
2019-05-15T17:41:17.181Z,47.60
2019-05-15T17:43:45.892Z,47.55
2019-05-15T17:46:15.831Z,46.29
2019-05-15T17:48:45.148Z,46.23
2019-05-15T17:51:15.076Z,44.99
2019-05-15T17:53:44.111Z,43.73
2019-05-15T17:56:13.648Z,44.54
2019-05-15T17:58:43.564Z,43.87
2019-05-15T18:01:13.173Z,43.55
2019-05-15T18:03:41.749Z,43.59
2019-05-15T18:06:10.034Z,43.59
2019-05-15T18:08:39.618Z,43.95
2019-05-15T18:11:09.511Z,43.41
2019-05-15T18:13:40.181Z,41.40
2019-05-15T18:16:13.452Z,43.98
2019-05-15T18:18:38.506Z,44.02
2019-05-15T18:21:08.784Z,43.68
2019-05-15T18:23:39.256Z,44.13
2019-05-15T18:26:09.187Z,43.62
2019-05-15T18:28:38.746Z,44.32
2019-05-15T18:31:08.910Z,43.10
2019-05-15T18:33:39.773Z,43.95
2019-05-15T18:36:08.696Z,44.31
2019-05-15T18:38:38.793Z,44.59
2019-05-15T18:41:10.212Z,45.09
2019-05-15T18:43:39.884Z,44.17
2019-05-15T18:46:10.241Z,44.32
2019-05-15T18:48:41.204Z,45.23
2019-05-15T18:51:09.545Z,44.98
2019-05-15T18:53:39.021Z,44.84
2019-05-15T18:56:09.012Z,45.06
2019-05-15T18:58:38.109Z,44.95
2019-05-15T19:01:09.411Z,46.41
2019-05-15T19:03:38.509Z,47.18
2019-05-15T19:06:09.351Z,45.89
2019-05-15T19:08:42.000Z,46.93
2019-05-15T19:11:10.306Z,45.92
2019-05-15T19:13:39.668Z,45.72
2019-05-15T19:16:12.439Z,47.20
2019-05-15T19:18:40.820Z,47.45
2019-05-15T19:21:10.227Z,46.98
2019-05-15T19:23:40.333Z,47.43
2019-05-15T19:26:11.664Z,47.39
2019-05-15T19:28:39.214Z,47.86
2019-05-15T19:31:08.947Z,48.69
2019-05-15T19:33:41.141Z,48.60
2019-05-15T19:36:08.662Z,48.28
2019-05-15T19:38:37.657Z,48.46
2019-05-15T19:41:06.782Z,48.34
2019-05-15T19:43:37.853Z,49.60
2019-05-15T19:46:07.816Z,49.52
2019-05-15T19:48:37.978Z,49.52
2019-05-15T19:51:05.865Z,49.50
2019-05-15T19:53:34.207Z,50.07
2019-05-15T19:56:02.558Z,49.43
2019-05-15T19:58:31.044Z,49.36
2019-05-15T20:00:59.320Z,50.24
2019-05-15T20:03:28.395Z,51.24
2019-05-15T20:06:01.768Z,51.12
2019-05-15T20:08:33.740Z,50.45
2019-05-15T20:11:02.019Z,51.74
2019-05-15T20:13:30.471Z,51.19
2019-05-15T20:15:58.818Z,51.59
2019-05-15T20:18:27.901Z,52.26
2019-05-15T20:20:58.354Z,52.41
2019-05-15T20:23:26.226Z,52.42
2019-05-15T20:25:54.549Z,52.76
2019-05-15T20:28:22.856Z,52.98
2019-05-15T20:30:51.413Z,53.79
2019-05-15T20:33:19.712Z,54.46
2019-05-15T20:35:48.176Z,54.29
2019-05-15T20:38:16.703Z,55.88
2019-05-15T20:40:48.550Z,55.88
2019-05-15T20:43:18.597Z,55.80
2019-05-15T20:45:49.045Z,56.58
2019-05-15T20:48:18.403Z,56.25
2019-05-15T20:50:48.259Z,55.73
2019-05-15T20:53:18.154Z,56.29
2019-05-15T20:55:49.887Z,57.57
2019-05-15T20:58:19.725Z,57.43
2019-05-15T21:00:49.438Z,57.51
2019-05-15T21:03:18.079Z,58.72
2019-05-15T21:05:48.798Z,58.33
2019-05-15T21:08:18.272Z,58.65
2019-05-15T21:10:48.980Z,59.03
2019-05-15T21:13:16.611Z,59.54
2019-05-15T21:15:44.909Z,59.54
2019-05-15T21:18:15.700Z,60.26
2019-05-15T21:20:43.310Z,60.37
2019-05-15T21:23:11.617Z,61.08
2019-05-15T21:25:42.215Z,61.99
2019-05-15T21:28:10.498Z,61.97
2019-05-15T21:30:41.112Z,62.90
2019-05-15T21:33:08.901Z,64.06
2019-05-15T21:35:38.829Z,64.32
2019-05-15T21:38:09.431Z,64.32
2019-05-15T21:40:40.721Z,64.75
2019-05-15T21:43:09.014Z,65.11
2019-05-15T21:45:37.578Z,65.85
2019-05-15T21:48:09.072Z,66.64
2019-05-15T21:50:38.843Z,67.42
2019-05-15T21:53:08.796Z,67.39
2019-05-15T21:55:41.258Z,67.65
2019-05-15T21:58:09.686Z,68.36
2019-05-15T22:00:40.502Z,68.66
2019-05-15T22:03:08.905Z,69.17
2019-05-15T22:05:38.635Z,69.60
2019-05-15T22:08:07.819Z,69.33
2019-05-15T22:10:38.677Z,70.82
2019-05-15T22:13:09.326Z,71.11
2019-05-15T22:15:37.809Z,70.45
2019-05-15T22:18:10.764Z,71.50
2019-05-15T22:20:38.776Z,70.83
2019-05-15T22:23:08.866Z,71.45
2019-05-15T22:25:38.621Z,71.70
2019-05-15T22:28:07.005Z,72.25
2019-05-15T22:30:35.712Z,72.64
2019-05-15T22:33:04.017Z,72.44
2019-05-15T22:35:32.329Z,72.93
2019-05-15T22:38:00.661Z,72.76
2019-05-15T22:40:34.187Z,73.19
2019-05-15T22:43:07.781Z,73.41
2019-05-15T22:45:38.608Z,73.25
2019-05-15T22:48:08.070Z,73.57
2019-05-15T22:50:38.432Z,73.38
2019-05-15T22:53:06.725Z,73.35
2019-05-15T22:55:37.839Z,73.74
2019-05-15T22:58:05.973Z,73.05
2019-05-15T23:00:35.759Z,72.62
2019-05-15T23:03:08.372Z,73.79
2019-05-15T23:05:39.713Z,73.28
2019-05-15T23:08:08.063Z,73.04
2019-05-15T23:10:37.987Z,73.15
2019-05-15T23:13:06.508Z,72.63
2019-05-15T23:15:34.884Z,73.27
2019-05-15T23:18:08.437Z,73.69
2019-05-15T23:20:38.803Z,73.76
2019-05-15T23:23:08.715Z,73.60
2019-05-15T23:25:38.071Z,73.11
2019-05-15T23:28:08.573Z,72.34
2019-05-15T23:30:38.770Z,72.54
2019-05-15T23:33:08.716Z,72.54
2019-05-15T23:35:40.855Z,72.45
2019-05-15T23:38:08.448Z,73.19
2019-05-15T23:40:36.877Z,73.22
2019-05-15T23:43:05.618Z,73.89
2019-05-15T23:45:33.881Z,73.91
2019-05-15T23:48:02.430Z,75.18
2019-05-15T23:50:30.719Z,75.01
2019-05-15T23:52:59.088Z,75.36
2019-05-15T23:55:30.667Z,75.06
2019-05-15T23:57:58.995Z,75.11
